Time;durP1;ratioP1;P1;durP2;ratioP2;P2;SDS_P1;SDS_P2;PMS_P1;PMS_P2;Temp;Humidity;BMP_temperature;BMP_pressure;BME280_temperature;BME280_humidity;BME280_pressure;Samples;Min_cycle;Max_cycle;Signal;HPM_P1;HPM_P2
2021/05/18 00:00:09;;;;;;;18.42;9.43;;;10.90;99.90;;;;;;5074228;28;20017;-74
2021/05/18 00:02:35;;;;;;;22.75;9.73;;;10.90;99.90;;;;;;5073638;28;20464;-73
2021/05/18 00:05:01;;;;;;;18.98;10.05;;;11.00;99.90;;;;;;5073075;28;20060;-73
2021/05/18 00:07:27;;;;;;;14.90;9.55;;;11.00;99.90;;;;;;5073824;28;20048;-73
2021/05/18 00:12:39;;;;;;;19.02;10.35;;;11.00;99.90;;;;;;5073398;28;20499;-73
2021/05/18 00:15:11;;;;;;;16.33;9.10;;;11.00;99.90;;;;;;5073731;28;20435;-73
2021/05/18 00:17:37;;;;;;;18.50;10.15;;;11.00;99.90;;;;;;5072948;28;20030;-73
2021/05/18 00:20:09;;;;;;;18.92;10.18;;;11.00;99.90;;;;;;5073704;28;20025;-74
2021/05/18 00:22:34;;;;;;;17.48;9.18;;;11.00;99.90;;;;;;5073391;28;20495;-73
2021/05/18 00:25:00;;;;;;;16.10;9.48;;;11.10;99.90;;;;;;5073098;28;20084;-73
2021/05/18 00:27:29;;;;;;;26.90;10.93;;;11.10;99.90;;;;;;5073297;28;20504;-73
2021/05/18 00:29:55;;;;;;;15.57;8.95;;;11.10;99.90;;;;;;5073648;28;20070;-73
2021/05/18 00:32:20;;;;;;;16.40;8.27;;;11.10;99.90;;;;;;5072398;28;20028;-73
2021/05/18 00:34:46;;;;;;;16.50;9.15;;;11.20;99.90;;;;;;5073379;28;20036;-74
2021/05/18 00:37:11;;;;;;;20.65;9.63;;;11.20;99.90;;;;;;5073406;28;20050;-74
2021/05/18 00:39:37;;;;;;;20.20;9.50;;;11.20;99.90;;;;;;5072337;28;20170;-74
2021/05/18 00:42:14;;;;;;;22.27;10.07;;;11.20;99.90;;;;;;5073512;28;20020;-74
2021/05/18 00:44:39;;;;;;;14.48;8.38;;;11.20;99.90;;;;;;5072966;28;20047;-74
2021/05/18 00:47:05;;;;;;;19.77;9.88;;;11.20;99.90;;;;;;5077573;28;20020;-74
2021/05/18 00:49:30;;;;;;;21.77;10.63;;;11.20;99.90;;;;;;5093287;28;20032;-74
2021/05/18 00:51:56;;;;;;;18.65;9.15;;;11.20;99.90;;;;;;5093164;28;20016;-73
2021/05/18 00:54:25;;;;;;;15.13;9.38;;;11.20;99.90;;;;;;5092396;28;20031;-74
2021/05/18 00:59:36;;;;;;;18.08;10.23;;;11.20;99.90;;;;;;5092100;28;20455;-74
2021/05/18 01:02:02;;;;;;;20.67;9.50;;;11.20;99.90;;;;;;5093174;28;20043;-74
2021/05/18 01:04:28;;;;;;;18.63;9.57;;;11.20;99.90;;;;;;5092432;28;20505;-75
2021/05/18 01:06:54;;;;;;;16.83;9.05;;;11.20;99.90;;;;;;5092561;28;20066;-75
2021/05/18 01:09:19;;;;;;;21.67;9.85;;;11.30;99.90;;;;;;5092518;28;20028;-75
2021/05/18 01:11:48;;;;;;;18.95;10.05;;;11.30;99.90;;;;;;5092769;28;20016;-75
2021/05/18 01:14:17;;;;;;;16.92;9.93;;;11.30;99.90;;;;;;5091899;28;20032;-75
2021/05/18 01:16:46;;;;;;;17.15;10.20;;;11.30;99.90;;;;;;5092694;28;20017;-75
2021/05/18 01:19:14;;;;;;;14.98;9.52;;;11.30;99.90;;;;;;5093137;28;20119;-75
2021/05/18 01:21:40;;;;;;;17.38;9.75;;;11.30;99.90;;;;;;5091531;28;20107;-74
2021/05/18 01:24:07;;;;;;;21.33;10.25;;;11.30;99.90;;;;;;5092845;28;20491;-75
2021/05/18 01:26:34;;;;;;;25.63;11.23;;;11.30;99.90;;;;;;5092079;28;20052;-75
2021/05/18 01:29:01;;;;;;;17.08;10.45;;;11.30;99.90;;;;;;5091765;28;20031;-74
2021/05/18 01:31:27;;;;;;;19.13;10.52;;;11.30;99.90;;;;;;5079262;28;20084;-75
2021/05/18 01:33:54;;;;;;;19.33;11.32;;;11.30;99.90;;;;;;5091529;28;20411;-75
2021/05/18 01:36:22;;;;;;;19.98;11.40;;;11.30;99.90;;;;;;5091363;28;20030;-75
2021/05/18 01:44:25;;;;;;;28.20;14.00;;;11.30;99.90;;;;;;5092221;28;20035;-75
2021/05/18 01:46:52;;;;;;;24.67;13.60;;;11.30;99.90;;;;;;5092532;28;20016;-75
2021/05/18 01:49:17;;;;;;;20.73;12.75;;;11.20;99.90;;;;;;5091313;28;20085;-75
2021/05/18 01:51:49;;;;;;;19.58;12.25;;;11.20;99.90;;;;;;5092602;28;20027;-75
2021/05/18 01:54:27;;;;;;;22.25;13.00;;;11.20;99.90;;;;;;5091643;28;20379;-75
2021/05/18 01:59:32;;;;;;;31.40;15.23;;;11.20;99.90;;;;;;5092010;28;20376;-75
2021/05/18 02:02:02;;;;;;;25.70;15.82;;;11.30;99.90;;;;;;5092281;28;20024;-75
2021/05/18 02:04:35;;;;;;;24.65;14.25;;;11.20;99.90;;;;;;5091360;28;20040;-75
2021/05/18 02:07:14;;;;;;;19.15;13.95;;;11.30;99.90;;;;;;5092860;28;20491;-75
2021/05/18 02:09:41;;;;;;;20.52;14.27;;;11.30;99.90;;;;;;5093056;28;20017;-75
2021/05/18 02:12:10;;;;;;;21.85;14.93;;;11.30;99.90;;;;;;5093686;28;20081;-75
2021/05/18 02:14:36;;;;;;;19.95;14.35;;;11.30;99.90;;;;;;5092390;28;20016;-75
2021/05/18 02:17:16;;;;;;;21.00;13.77;;;11.30;99.90;;;;;;5091206;28;20761;-74
2021/05/18 02:20:04;;;;;;;21.53;14.73;;;11.30;99.90;;;;;;5091704;28;20022;-74
2021/05/18 02:24:38;;;;;;;28.90;15.98;;;11.30;99.90;;;;;;5073809;28;20290;-75
2021/05/18 02:25:20;;;;;;;25.45;15.45;;;11.20;99.90;;;;;;5090895;28;20035;-76
2021/05/18 02:27:46;;;;;;;20.45;15.45;;;11.30;99.90;;;;;;5091772;28;20067;-74
2021/05/18 02:30:14;;;;;;;26.95;15.38;;;11.20;99.90;;;;;;5091476;28;20156;-74
2021/05/18 02:32:40;;;;;;;24.80;14.82;;;11.20;99.90;;;;;;5091167;28;20035;-75
2021/05/18 02:35:09;;;;;;;29.77;15.35;;;11.30;99.90;;;;;;5094233;28;20376;-74
2021/05/18 02:37:37;;;;;;;24.13;15.57;;;11.30;99.90;;;;;;5095523;28;20028;-74
2021/05/18 02:40:06;;;;;;;21.52;15.45;;;11.20;99.90;;;;;;5080733;28;20029;-75
2021/05/18 02:42:31;;;;;;;21.33;14.93;;;11.20;99.90;;;;;;5095495;28;20024;-75
2021/05/18 02:50:40;;;;;;;20.73;14.55;;;11.20;99.90;;;;;;5095942;28;20034;-75
2021/05/18 02:53:06;;;;;;;21.52;14.68;;;11.20;99.90;;;;;;5095281;28;20119;-75
2021/05/18 02:55:38;;;;;;;25.27;15.65;;;11.10;99.90;;;;;;5095081;28;20107;-75
2021/05/18 02:58:07;;;;;;;24.17;16.13;;;11.10;99.90;;;;;;5095675;28;20035;-75
2021/05/18 03:00:32;;;;;;;19.60;15.55;;;11.10;99.90;;;;;;5094724;28;20154;-75
2021/05/18 03:02:58;;;;;;;27.00;16.77;;;11.10;99.90;;;;;;5080986;28;20122;-75
2021/05/18 03:05:25;;;;;;;27.80;17.42;;;11.10;99.90;;;;;;5095730;28;20043;-75
2021/05/18 03:07:52;;;;;;;37.38;18.80;;;11.00;99.90;;;;;;5094821;28;20043;-76
2021/05/18 03:10:18;;;;;;;26.65;18.00;;;11.00;99.90;;;;;;5085055;28;20507;-76
2021/05/18 03:12:43;;;;;;;32.25;17.58;;;11.00;99.90;;;;;;5090681;28;20053;-75
2021/05/18 03:15:10;;;;;;;27.55;19.05;;;11.00;99.90;;;;;;5094489;28;20028;-75
2021/05/18 03:17:36;;;;;;;34.17;20.30;;;11.00;99.90;;;;;;5094815;28;20047;-74
2021/05/18 03:20:05;;;;;;;32.00;19.27;;;11.00;99.90;;;;;;5095130;28;20081;-74
2021/05/18 03:22:31;;;;;;;29.00;18.08;;;11.00;99.90;;;;;;5094884;28;20031;-74
2021/05/18 03:24:57;;;;;;;32.53;18.95;;;11.00;99.90;;;;;;5095175;28;20082;-75
2021/05/18 03:27:27;;;;;;;32.40;19.75;;;11.00;99.90;;;;;;5093680;28;20052;-75
2021/05/18 03:29:53;;;;;;;;;;;11.00;99.90;;;;;;5095283;28;20039;-75
2021/05/18 03:35:05;;;;;;;31.88;17.17;;;11.10;99.90;;;;;;5094277;28;20019;-74
2021/05/18 03:40:09;;;;;;;26.08;17.15;;;11.10;99.90;;;;;;5094523;28;20035;-75
2021/05/18 03:42:38;;;;;;;29.80;17.80;;;11.10;99.90;;;;;;5093543;28;20028;-75
2021/05/18 03:45:14;;;;;;;26.33;18.17;;;11.10;99.90;;;;;;5094338;28;20103;-75
2021/05/18 04:17:10;;;;;;;23.90;15.02;;;11.10;99.90;;;;;;5093265;28;20066;-75
2021/05/18 04:19:40;;;;;;;26.50;18.35;;;11.10;99.90;;;;;;5093832;28;20020;-75
2021/05/18 04:24:51;;;;;;;28.38;16.85;;;11.10;99.90;;;;;;5092778;28;20122;-75
2021/05/18 04:48:26;;;;;;;24.77;14.68;;;11.30;99.90;;;;;;5047350;28;20047;-75
2021/05/18 04:49:59;;;;;;;23.67;15.15;;;11.30;99.90;;;;;;5094221;28;20061;-74
2021/05/18 04:52:32;;;;;;;27.30;15.38;;;11.30;99.90;;;;;;5092836;28;20028;-75
2021/05/18 05:00:14;;;;;;;23.65;14.93;;;11.40;99.90;;;;;;5093136;28;20038;-75
2021/05/18 05:02:59;;;;;;;24.52;15.23;;;11.40;99.90;;;;;;5093289;28;20035;-75
2021/05/18 05:16:26;;;;;;;19.95;14.18;;;11.70;99.90;;;;;;5050373;28;20087;-74
2021/05/18 05:18:52;;;;;;;17.65;14.27;;;11.70;99.90;;;;;;5084558;28;20411;-75
2021/05/18 05:21:26;;;;;;;18.60;13.45;;;11.80;99.90;;;;;;5092674;28;20020;-75
2021/05/18 05:23:52;;;;;;;21.10;14.98;;;11.80;99.90;;;;;;5093065;28;20028;-74
2021/05/18 05:26:17;;;;;;;22.73;14.93;;;11.80;99.90;;;;;;5092662;28;20066;-74
2021/05/18 05:28:43;;;;;;;19.25;14.60;;;11.80;99.90;;;;;;5092530;28;20479;-75
2021/05/18 05:31:09;;;;;;;21.10;14.88;;;11.80;99.90;;;;;;5079747;28;20078;-74
2021/05/18 05:33:34;;;;;;;18.77;14.13;;;11.80;99.90;;;;;;5091352;28;20483;-75
2021/05/18 05:36:00;;;;;;;21.35;15.05;;;11.80;99.90;;;;;;5091951;28;20329;-75
2021/05/18 05:38:27;;;;;;;20.00;14.75;;;11.80;99.90;;;;;;5056487;28;20067;-75
2021/05/18 05:40:53;;;;;;;18.90;13.73;;;11.80;99.90;;;;;;5059715;28;20017;-75
2021/05/18 05:43:18;;;;;;;18.85;13.30;;;11.80;99.90;;;;;;5062131;28;20203;-74
2021/05/18 05:45:44;;;;;;;19.00;13.95;;;11.70;99.90;;;;;;5057465;28;20504;-76
2021/05/18 05:48:10;;;;;;;19.63;13.82;;;11.80;99.90;;;;;;5056018;28;20469;-75
2021/05/18 05:50:35;;;;;;;19.25;13.55;;;11.90;99.90;;;;;;5062548;28;20044;-75
2021/05/18 05:53:04;;;;;;;17.10;13.38;;;12.00;99.90;;;;;;5053620;28;20032;-75
2021/05/18 05:55:29;;;;;;;17.98;13.48;;;12.00;99.90;;;;;;5057520;28;20025;-75
2021/05/18 05:57:55;;;;;;;20.70;13.93;;;12.10;99.90;;;;;;5059640;28;20032;-75
2021/05/18 06:00:21;;;;;;;18.40;13.57;;;12.10;99.90;;;;;;5057744;28;20028;-75
2021/05/18 06:02:46;;;;;;;18.27;12.68;;;12.20;99.90;;;;;;5055948;28;20023;-75
2021/05/18 06:05:12;;;;;;;21.52;14.18;;;12.20;99.90;;;;;;5068165;28;20396;-76
2021/05/18 06:07:37;;;;;;;25.80;13.98;;;12.30;99.90;;;;;;5073402;28;20016;-74
2021/05/18 06:10:16;;;;;;;19.65;13.43;;;12.40;99.90;;;;;;5074348;28;20039;-75
2021/05/18 06:29:39;;;;;;;17.00;11.52;;;12.80;99.90;;;;;;5073182;28;20487;-74
2021/05/18 06:37:35;;;;;;;16.60;12.45;;;12.80;99.90;;;;;;5071551;28;20080;-76
2021/05/18 06:48:08;;;;;;;21.08;14.57;;;12.90;99.90;;;;;;5074810;28;20021;-77
2021/05/18 06:50:33;;;;;;;24.88;15.60;;;12.90;99.90;;;;;;5056349;28;20017;-77
2021/05/18 06:52:59;;;;;;;19.05;13.70;;;12.90;99.90;;;;;;5071754;28;20039;-77
2021/05/18 06:55:31;;;;;;;26.10;15.45;;;13.00;99.90;;;;;;5073250;28;20146;-76
2021/05/18 06:58:04;;;;;;;22.13;15.60;;;13.00;99.90;;;;;;5071588;28;20404;-76
2021/05/18 07:00:30;;;;;;;23.67;14.32;;;13.00;99.90;;;;;;5071649;28;20104;-76
2021/05/18 07:02:58;;;;;;;22.17;16.50;;;13.00;99.90;;;;;;5072099;28;20058;-76
2021/05/18 07:08:03;;;;;;;19.60;14.48;;;12.90;99.90;;;;;;5074060;28;20139;-77
2021/05/18 07:10:29;;;;;;;19.45;14.98;;;12.80;99.90;;;;;;5073026;28;20029;-77
2021/05/18 07:12:54;;;;;;;27.98;15.48;;;12.70;99.90;;;;;;5074166;28;20074;-77
2021/05/18 07:15:20;;;;;;;24.67;14.95;;;12.80;99.90;;;;;;5053953;28;20485;-77
2021/05/18 07:17:45;;;;;;;24.25;13.57;;;12.80;99.90;;;;;;5082360;28;20032;-76
2021/05/18 07:20:11;;;;;;;18.95;12.70;;;12.90;99.90;;;;;;5087959;28;20103;-77
2021/05/18 07:22:37;;;;;;;17.83;11.50;;;12.90;99.90;;;;;;5087240;28;20128;-76
2021/05/18 07:25:03;;;;;;;16.05;11.25;;;13.00;99.90;;;;;;5089608;28;20055;-76
2021/05/18 07:27:29;;;;;;;15.27;11.25;;;13.10;99.90;;;;;;5087913;28;20086;-76
2021/05/18 07:29:54;;;;;;;19.15;11.68;;;13.20;99.90;;;;;;5065955;28;20044;-75
2021/05/18 07:32:20;;;;;;;18.90;12.45;;;13.30;99.90;;;;;;5079810;28;20035;-76
2021/05/18 07:34:46;;;;;;;13.57;10.43;;;13.50;99.90;;;;;;5080824;28;20044;-79
2021/05/18 07:37:13;;;;;;;11.35;9.80;;;13.60;99.90;;;;;;5064279;28;20029;-79
2021/05/18 07:39:38;;;;;;;17.73;11.20;;;13.80;99.90;;;;;;5079679;28;20028;-79
2021/05/18 07:42:04;;;;;;;18.10;10.35;;;14.00;99.90;;;;;;5082434;28;20035;-77
2021/05/18 07:44:30;;;;;;;10.45;8.52;;;14.10;99.90;;;;;;5078533;28;20029;-75
2021/05/18 07:46:56;;;;;;;10.05;9.00;;;14.20;99.90;;;;;;5082121;28;20051;-77
2021/05/18 07:49:29;;;;;;;9.73;8.68;;;14.20;99.90;;;;;;5078880;28;20464;-76
2021/05/18 08:05:24;;;;;;;12.70;10.02;;;13.80;99.90;;;;;;5095049;28;20112;-78
2021/05/18 08:07:49;;;;;;;15.20;10.52;;;13.90;99.90;;;;;;5080063;28;20467;-78
2021/05/18 08:10:31;;;;;;;14.10;9.85;;;13.90;99.90;;;;;;5093581;28;20073;-77
2021/05/18 08:12:57;;;;;;;16.10;10.43;;;14.00;99.90;;;;;;5084558;28;20025;-76
2021/05/18 08:58:50;;;;;;;8.27;4.57;;;15.60;99.90;;;;;;5072706;28;20028;-76
2021/05/18 10:36:00;;;;;;;6.85;3.33;;;16.20;99.90;;;;;;5103483;28;20028;-82
2021/05/18 10:38:45;;;;;;;5.50;3.75;;;16.10;99.90;;;;;;5094930;28;20099;-82
2021/05/18 10:41:19;;;;;;;4.38;3.97;;;16.00;99.90;;;;;;5083735;28;20044;-82
2021/05/18 10:43:58;;;;;;;12.23;3.70;;;15.90;99.90;;;;;;5091443;28;20044;-83
2021/05/18 10:46:28;;;;;;;3.75;3.35;;;15.80;99.90;;;;;;5090917;28;20052;-82
2021/05/18 10:48:58;;;;;;;3.67;3.38;;;15.90;99.90;;;;;;5080968;28;20041;-79
2021/05/18 10:51:37;;;;;;;4.07;3.47;;;16.00;99.90;;;;;;5082753;28;20032;-81
2021/05/18 10:54:21;;;;;;;10.88;3.90;;;16.00;99.90;;;;;;5091434;28;20024;-79
2021/05/18 10:56:56;;;;;;;3.42;3.10;;;15.90;99.90;;;;;;5087065;28;20116;-81
2021/05/18 10:59:28;;;;;;;5.80;3.90;;;15.80;99.90;;;;;;5084625;28;20032;-80
2021/05/18 11:02:11;;;;;;;4.13;3.33;;;15.70;99.90;;;;;;5096030;28;20021;-80
2021/05/18 11:05:00;;;;;;;5.22;3.25;;;15.80;99.90;;;;;;5095300;28;20036;-78
2021/05/18 11:07:29;;;;;;;3.88;2.72;;;16.00;99.90;;;;;;5096284;28;20020;-80
2021/05/18 11:09:55;;;;;;;3.40;2.42;;;16.10;99.90;;;;;;5069591;28;20077;-81
2021/05/18 11:12:24;;;;;;;3.30;2.45;;;16.30;99.90;;;;;;5095279;28;20379;-82
2021/05/18 11:14:56;;;;;;;3.00;2.70;;;16.40;99.90;;;;;;5095510;28;20115;-81
2021/05/18 11:17:25;;;;;;;2.70;2.40;;;16.40;99.90;;;;;;5076379;28;20075;-79
2021/05/18 11:20:23;;;;;;;4.43;2.33;;;16.30;99.90;;;;;;5079682;28;20031;-79
2021/05/18 11:25:42;;;;;;;7.28;3.33;;;16.20;99.90;;;;;;5075094;28;20039;-78
2021/05/18 11:28:14;;;;;;;3.38;1.90;;;16.10;99.90;;;;;;5085719;28;20395;-78
2021/05/18 11:30:41;;;;;;;3.45;2.03;;;16.10;99.90;;;;;;5096029;28;20066;-78
2021/05/18 11:33:07;;;;;;;2.40;1.80;;;16.20;99.90;;;;;;5094285;28;20020;-78
2021/05/18 11:35:33;;;;;;;3.28;2.13;;;16.40;99.90;;;;;;5097081;28;20517;-78
2021/05/18 11:38:01;;;;;;;4.03;2.17;;;16.50;99.60;;;;;;5100358;28;20023;-80
2021/05/18 11:40:28;;;;;;;3.40;1.85;;;16.50;98.70;;;;;;5093019;28;20456;-79
2021/05/18 11:42:53;;;;;;;3.22;1.42;;;16.60;99.60;;;;;;5082019;28;20067;-77
2021/05/18 11:45:20;;;;;;;2.33;1.60;;;16.70;98.20;;;;;;5091778;28;20051;-75
2021/05/18 11:47:48;;;;;;;2.53;2.08;;;16.70;97.90;;;;;;5092715;28;20095;-80
2021/05/18 11:50:20;;;;;;;4.03;2.40;;;16.70;99.80;;;;;;5091603;28;20495;-79
2021/05/18 11:52:45;;;;;;;4.72;1.98;;;17.00;99.40;;;;;;5083686;28;20028;-78
2021/05/18 11:55:29;;;;;;;2.33;2.10;;;17.20;99.40;;;;;;5088982;28;20016;-77
2021/05/18 11:57:56;;;;;;;4.18;2.35;;;17.30;98.30;;;;;;5080275;28;20027;-78
2021/05/18 12:00:26;;;;;;;3.22;2.13;;;17.30;96.90;;;;;;5092502;28;20095;-78
2021/05/18 12:03:05;;;;;;;6.10;2.10;;;17.20;96.60;;;;;;5087592;28;20040;-79
2021/05/18 12:05:32;;;;;;;3.08;2.78;;;17.10;96.40;;;;;;5079979;28;20032;-79
2021/05/18 12:07:58;;;;;;;4.90;2.63;;;17.00;97.20;;;;;;5090721;28;20028;-77
2021/05/18 12:10:31;;;;;;;2.55;2.30;;;17.00;97.70;;;;;;5091729;28;20053;-78
2021/05/18 12:12:57;;;;;;;4.18;2.22;;;17.00;98.80;;;;;;5092566;28;20035;-80
2021/05/18 12:15:23;;;;;;;4.72;2.50;;;17.00;97.80;;;;;;5093111;28;20071;-80
2021/05/18 12:17:53;;;;;;;5.57;2.50;;;17.00;98.30;;;;;;5094766;28;20027;-80
2021/05/18 12:20:19;;;;;;;4.55;2.15;;;17.00;98.20;;;;;;5079662;28;20027;-78
2021/05/18 12:22:47;;;;;;;3.00;2.20;;;16.90;98.30;;;;;;5093775;28;20020;-77
2021/05/18 12:25:43;;;;;;;2.53;2.20;;;17.00;97.30;;;;;;5079971;28;20039;-78
2021/05/18 12:28:11;;;;;;;5.63;1.80;;;17.10;97.20;;;;;;5080822;28;20518;-77
2021/05/18 12:30:39;;;;;;;3.78;2.00;;;16.80;96.70;;;;;;5093085;28;20146;-75
2021/05/18 12:33:05;;;;;;;3.67;2.00;;;16.70;97.20;;;;;;5094277;28;20460;-77
2021/05/18 12:35:31;;;;;;;2.17;1.95;;;16.60;98.30;;;;;;5093242;28;20475;-78
2021/05/18 12:37:57;;;;;;;1.75;1.60;;;16.60;96.90;;;;;;5094494;28;20028;-76
2021/05/18 12:40:25;;;;;;;2.90;1.60;;;16.60;97.70;;;;;;5094105;28;20060;-75
2021/05/18 12:42:51;;;;;;;5.22;1.85;;;16.70;97.00;;;;;;5093274;28;20111;-77
2021/05/18 12:45:18;;;;;;;3.13;2.00;;;16.70;96.70;;;;;;5093675;28;20111;-78
2021/05/18 12:47:44;;;;;;;7.57;1.80;;;16.70;96.80;;;;;;5083086;28;20028;-78
2021/05/18 12:50:13;;;;;;;2.65;1.88;;;16.60;97.30;;;;;;5091952;28;20058;-77
2021/05/18 12:52:44;;;;;;;2.63;1.77;;;16.80;97.30;;;;;;5093815;28;20078;-75
2021/05/18 12:55:16;;;;;;;3.95;1.60;;;16.80;97.10;;;;;;5093692;28;20464;-77
2021/05/18 12:57:55;;;;;;;3.92;1.55;;;16.80;98.10;;;;;;5093722;28;20149;-76
2021/05/18 13:00:35;;;;;;;2.72;1.60;;;17.10;97.10;;;;;;5093604;28;20024;-77
2021/05/18 13:03:11;;;;;;;5.97;1.53;;;17.00;96.50;;;;;;5094480;28;20052;-76
2021/05/18 13:05:38;;;;;;;2.33;1.80;;;17.20;97.00;;;;;;5092211;28;20056;-77
2021/05/18 13:08:13;;;;;;;2.10;1.25;;;17.20;97.40;;;;;;5093140;28;20483;-77
2021/05/18 13:13:09;;;;;;;1.07;1.07;;;17.20;94.70;;;;;;5092310;28;20471;-76
2021/05/18 13:15:35;;;;;;;1.73;1.10;;;17.20;95.30;;;;;;5093307;28;20074;-76
2021/05/18 13:18:04;;;;;;;3.20;1.33;;;17.20;95.90;;;;;;5091821;28;20020;-77
2021/05/18 13:20:40;;;;;;;1.80;1.23;;;17.30;94.90;;;;;;5092792;28;20028;-77
2021/05/18 13:23:09;;;;;;;1.42;0.85;;;17.40;94.40;;;;;;5093032;28;20111;-75
2021/05/18 13:28:22;;;;;;;3.85;1.25;;;17.30;94.90;;;;;;5092194;28;20086;-72
2021/05/18 13:30:48;;;;;;;1.83;1.35;;;17.40;95.20;;;;;;5092645;28;20039;-71
2021/05/18 13:33:14;;;;;;;3.85;1.33;;;17.50;95.80;;;;;;5088243;28;20050;-71
2021/05/18 13:35:40;;;;;;;2.28;1.20;;;17.60;94.00;;;;;;5078595;28;20182;-73
2021/05/18 13:38:06;;;;;;;2.00;1.50;;;17.60;94.00;;;;;;5092377;28;20028;-74
2021/05/18 13:40:31;;;;;;;2.63;1.50;;;17.50;94.00;;;;;;5091454;28;20024;-74
2021/05/18 13:42:58;;;;;;;1.85;1.65;;;17.60;94.40;;;;;;5087278;28;20448;-74
2021/05/18 13:45:27;;;;;;;4.30;1.65;;;17.60;93.70;;;;;;5083877;28;20036;-73
2021/05/18 13:47:55;;;;;;;4.53;1.83;;;17.60;94.30;;;;;;5091889;28;20042;-74
2021/05/18 13:50:22;;;;;;;2.42;1.88;;;17.70;95.50;;;;;;5091677;28;20535;-74
2021/05/18 13:52:48;;;;;;;5.15;1.38;;;17.50;92.70;;;;;;5092716;28;20073;-74
2021/05/18 13:55:14;;;;;;;1.50;1.40;;;17.40;94.40;;;;;;5086188;28;20023;-74
2021/05/18 13:57:39;;;;;;;3.42;1.73;;;17.40;95.40;;;;;;5082828;28;20028;-74
2021/05/18 14:00:09;;;;;;;2.53;1.20;;;17.50;95.30;;;;;;5086478;28;20031;-73
2021/05/18 14:02:40;;;;;;;5.07;1.50;;;17.60;94.00;;;;;;5082827;28;20444;-73
2021/05/18 14:05:08;;;;;;;2.25;1.20;;;17.60;93.80;;;;;;5087323;28;20046;-74
2021/05/18 14:10:11;;;;;;;3.00;1.20;;;17.50;94.40;;;;;;5086909;28;20028;-73
2021/05/18 14:12:37;;;;;;;1.98;1.02;;;17.50;93.20;;;;;;5081853;28;20360;-73
2021/05/18 14:15:04;;;;;;;1.98;1.10;;;17.60;93.20;;;;;;5086345;28;20022;-76
2021/05/18 14:17:30;;;;;;;2.70;1.20;;;17.60;93.90;;;;;;5082936;28;20024;-74
2021/05/18 14:19:55;;;;;;;4.30;1.50;;;17.60;93.80;;;;;;5085560;28;20035;-75
2021/05/18 14:22:21;;;;;;;2.70;1.33;;;17.60;94.60;;;;;;5084260;28;20024;-73
2021/05/18 14:25:06;;;;;;;8.00;1.42;;;17.70;95.40;;;;;;5083819;28;20379;-73
2021/05/18 14:27:37;;;;;;;2.28;1.60;;;17.70;95.80;;;;;;5084023;28;20545;-73
2021/05/18 14:30:09;;;;;;;3.78;1.15;;;17.80;95.70;;;;;;5086101;28;20395;-74
2021/05/18 14:32:36;;;;;;;2.80;0.90;;;17.90;95.10;;;;;;5090043;28;20027;-73
2021/05/18 14:35:03;;;;;;;2.88;1.10;;;18.10;95.10;;;;;;5089251;28;20012;-73
2021/05/18 14:37:29;;;;;;;4.05;1.77;;;18.10;92.90;;;;;;5080738;28;20031;-73
2021/05/18 14:40:05;;;;;;;2.70;0.90;;;18.10;94.20;;;;;;5077869;28;20017;-74
2021/05/18 14:45:37;;;;;;;;;;;18.20;93.00;;;;;;4954676;28;20055;-74
2021/05/18 14:56:04;;;;;;;2.70;1.10;;;17.80;93.70;;;;;;5057161;28;20309;-75
2021/05/18 14:58:30;;;;;;;2.88;0.80;;;17.80;93.70;;;;;;5055200;28;20020;-74
2021/05/18 15:00:55;;;;;;;2.35;1.05;;;17.80;92.40;;;;;;5064273;28;20388;-74
2021/05/18 15:03:21;;;;;;;6.25;1.35;;;17.80;92.80;;;;;;5055068;28;20102;-75
2021/05/18 15:05:46;;;;;;;1.88;1.20;;;17.80;94.10;;;;;;5060763;28;20442;-74
2021/05/18 15:08:12;;;;;;;2.95;1.20;;;18.10;93.80;;;;;;5062097;28;20032;-74
2021/05/18 15:10:40;;;;;;;2.45;1.10;;;18.10;92.80;;;;;;5075509;28;20032;-74
2021/05/18 15:13:05;;;;;;;2.35;0.95;;;18.20;92.00;;;;;;5088970;28;20047;-73
2021/05/18 15:15:31;;;;;;;1.42;1.05;;;18.20;91.30;;;;;;5089072;28;20485;-74
2021/05/18 15:17:58;;;;;;;3.42;1.10;;;18.20;91.50;;;;;;5086338;28;20032;-74
2021/05/18 15:20:25;;;;;;;5.65;1.70;;;18.20;91.50;;;;;;5080784;28;20102;-74
2021/05/18 15:22:50;;;;;;;2.78;1.02;;;18.20;91.80;;;;;;5077874;28;20388;-74
2021/05/18 15:25:16;;;;;;;1.88;1.15;;;18.20;92.20;;;;;;5061697;28;20028;-74
2021/05/18 15:27:42;;;;;;;4.13;1.10;;;18.20;91.70;;;;;;5075388;28;20049;-74
2021/05/18 15:30:09;;;;;;;1.58;1.02;;;18.30;91.30;;;;;;5081927;28;20153;-74
2021/05/18 15:32:35;;;;;;;3.63;1.38;;;18.50;92.10;;;;;;5089019;28;20024;-74
2021/05/18 15:35:06;;;;;;;1.75;0.88;;;18.60;89.70;;;;;;5088141;28;20111;-74
2021/05/18 15:37:32;;;;;;;2.40;0.95;;;19.40;89.80;;;;;;5088082;28;20486;-73
2021/05/18 15:39:57;;;;;;;1.73;1.00;;;18.80;87.80;;;;;;5081812;28;20095;-72
2021/05/18 15:42:23;;;;;;;1.63;0.70;;;18.90;89.50;;;;;;5094226;28;20107;-74
2021/05/18 15:44:48;;;;;;;1.58;0.90;;;19.00;89.30;;;;;;5079648;28;20515;-74
2021/05/18 15:47:14;;;;;;;2.80;1.00;;;19.20;88.20;;;;;;5075371;28;20027;-74
2021/05/18 15:49:40;;;;;;;3.38;2.25;;;19.00;86.70;;;;;;5072954;28;20029;-74
2021/05/18 15:52:06;;;;;;;1.75;1.38;;;18.70;86.90;;;;;;5072108;28;20048;-75
2021/05/18 15:54:31;;;;;;;1.58;1.00;;;18.30;86.30;;;;;;5083090;28;20028;-75
2021/05/18 15:56:57;;;;;;;2.45;1.10;;;18.20;89.60;;;;;;5095276;28;20207;-74
2021/05/18 15:59:24;;;;;;;2.78;1.58;;;18.20;88.60;;;;;;5094158;28;20044;-74
2021/05/18 16:01:49;;;;;;;1.50;1.10;;;18.30;89.70;;;;;;5093749;28;20026;-73
2021/05/18 16:04:15;;;;;;;2.65;0.90;;;18.40;90.00;;;;;;5094079;28;20119;-73
2021/05/18 16:06:43;;;;;;;2.47;1.30;;;18.50;89.60;;;;;;5094456;28;20024;-73
2021/05/18 16:09:11;;;;;;;2.47;1.25;;;18.50;90.10;;;;;;5094073;28;20032;-74
2021/05/18 16:11:38;;;;;;;1.70;1.23;;;18.50;89.80;;;;;;5073888;28;20021;-74
2021/05/18 16:14:08;;;;;;;2.00;1.10;;;18.50;88.90;;;;;;5086351;28;20086;-74
2021/05/18 16:16:34;;;;;;;2.50;1.25;;;18.50;88.80;;;;;;5093834;28;20032;-73
2021/05/18 16:19:00;;;;;;;3.45;1.20;;;18.60;87.70;;;;;;5094073;28;20031;-74
2021/05/18 16:21:26;;;;;;;3.08;1.17;;;18.70;84.10;;;;;;5092755;28;20020;-74
2021/05/18 16:23:54;;;;;;;4.95;1.52;;;18.80;87.60;;;;;;5094068;28;20387;-74
2021/05/18 16:26:23;;;;;;;3.35;1.58;;;18.80;87.20;;;;;;5093725;28;20321;-74
2021/05/18 16:28:49;;;;;;;3.13;1.60;;;18.90;87.50;;;;;;5062892;28;20515;-74
2021/05/18 16:31:15;;;;;;;3.58;1.92;;;19.00;87.30;;;;;;5068825;28;20032;-74
2021/05/18 16:33:41;;;;;;;3.55;1.80;;;19.30;86.70;;;;;;5070255;28;20464;-74
2021/05/18 16:36:08;;;;;;;5.68;2.08;;;19.00;84.80;;;;;;5075448;28;20149;-74
2021/05/18 16:38:34;;;;;;;4.28;1.88;;;19.00;86.00;;;;;;5074211;28;20028;-73
2021/05/18 16:41:01;;;;;;;1.92;1.70;;;19.00;86.10;;;;;;5076633;28;20487;-74
2021/05/18 16:43:27;;;;;;;3.53;1.60;;;18.90;81.20;;;;;;5067474;28;20036;-73
2021/05/18 16:45:54;;;;;;;2.83;1.33;;;19.00;86.10;;;;;;5074882;28;20028;-73
2021/05/18 16:48:21;;;;;;;1.52;1.10;;;19.20;80.50;;;;;;5071305;28;20117;-74
2021/05/18 16:50:48;;;;;;;4.10;1.35;;;19.40;79.70;;;;;;5055790;28;20154;-73
2021/05/18 16:53:14;;;;;;;2.58;1.70;;;19.50;80.10;;;;;;5077232;28;20020;-74
2021/05/18 16:55:40;;;;;;;3.30;1.15;;;19.70;77.90;;;;;;5072620;28;20032;-74
2021/05/18 16:58:06;;;;;;;1.40;1.30;;;19.60;76.10;;;;;;5072173;28;20503;-73
2021/05/18 17:00:32;;;;;;;2.38;1.55;;;19.60;78.20;;;;;;5071769;28;20029;-73
2021/05/18 17:02:57;;;;;;;3.42;1.40;;;19.70;76.60;;;;;;5072252;28;20031;-74
2021/05/18 17:05:26;;;;;;;2.58;1.23;;;19.70;77.40;;;;;;5071144;28;20032;-73
2021/05/18 17:07:53;;;;;;;2.92;1.30;;;19.80;75.80;;;;;;5070412;28;20074;-74
2021/05/18 17:10:22;;;;;;;1.90;1.23;;;20.00;75.60;;;;;;5070128;28;20058;-74
2021/05/18 17:12:48;;;;;;;2.10;0.93;;;20.20;74.90;;;;;;5072629;28;20031;-74
2021/05/18 17:15:13;;;;;;;1.80;1.15;;;20.10;73.50;;;;;;5073850;28;20024;-74
2021/05/18 17:17:39;;;;;;;1.23;1.00;;;20.30;74.30;;;;;;5074014;28;20385;-74
2021/05/18 17:20:06;;;;;;;1.40;1.13;;;20.40;74.50;;;;;;5074345;28;20094;-74
2021/05/18 17:22:31;;;;;;;2.78;1.38;;;20.50;73.80;;;;;;5067907;28;20021;-73
2021/05/18 17:24:57;;;;;;;1.95;1.10;;;20.50;71.30;;;;;;5072099;28;20074;-73
2021/05/18 17:27:23;;;;;;;3.42;1.65;;;20.60;72.60;;;;;;5073597;28;20040;-74
2021/05/18 17:29:49;;;;;;;3.92;0.98;;;20.70;71.00;;;;;;5075721;28;20035;-74
2021/05/18 17:32:15;;;;;;;4.55;1.10;;;20.80;71.40;;;;;;5072745;28;20047;-74
2021/05/18 17:34:40;;;;;;;2.92;1.05;;;20.90;69.60;;;;;;5073189;28;20154;-73
2021/05/18 17:37:08;;;;;;;1.83;1.02;;;20.90;70.10;;;;;;5074213;28;20036;-73
2021/05/18 17:39:34;;;;;;;2.65;0.82;;;20.80;70.00;;;;;;5071573;28;20412;-73
2021/05/18 17:42:00;;;;;;;1.63;1.10;;;21.00;69.20;;;;;;5069391;28;20199;-74